CheckWX is a tool to help pilots better visualize weather data.  It is not intended as a substitute for an official pre-flight weather briefing.

20:12:29 UTC

KRND TAF
Randolph AFB Airport
Universal City, Texas, USA
TAF AMD KRND 202145Z 2021/2123 17010G25KT 9999 FEW040 QNH2988INS BECMG 2105/2106 14008KT 9999 BKN013 OVC020 QNH2999INS BECMG 2115/2116 15010G15KT 9999 FEW025 SCT040 QNH3000INS TX36/2021Z TN25/2112Z LAST NO AMDS AFT 2100 NEXT 2217

Sep-20@
21:00 UTC

Sep-20 @ 21:00 UTC

Sep-21@
05:00 UTC

Sep-21 @ 05:00 UTC

TAF AMD KRND 202145Z 2021/2123 17010G25KT 9999 FEW040 QNH2988INS

Expired

Wind
  • 170° at 10 KTS
  • {Gusting to 25 KTS
Cloud Levels
  • Few at 4,000' AGL

Sep-21@
05:00 UTC

Sep-21 @ 05:00 UTC

Sep-21@
15:00 UTC

Sep-21 @ 15:00 UTC

BECMG 2105/2106 14008KT 9999 BKN013 OVC020 QNH2999INS

Expired

Wind
  • 140° at 8 KTS
Cloud Levels
  • Broken at 1,300' AGL
  • Overcast at 2,000' AGL

Sep-21@
15:00 UTC

Sep-21 @ 15:00 UTC

Sep-21@
23:00 UTC

Sep-21 @ 23:00 UTC

BECMG 2115/2116 15010G15KT 9999 FEW025 SCT040 QNH3000INS TX36/2021Z TN25/2112Z LAST NO AMDS AFT 2100 NEXT 2217

Becoming

Becoming Conditions expected by Sat, Sep 21, 2019 @ 16:00 UTC

Wind
  • 150° at 10 KTS
  • {Gusting to 15 KTS
Cloud Levels
  • Few at 2,500' AGL
  • Scattered at 4,000' AGL